Ana Sayfa
METAR-TAF:

METAR-TAF

Havaalanları :

Ouagadougou, Burkina Faso

Enlem: 12-21N, Boylam: 001-31W, yükseklik: 316 m

Güncel hava durumu gözlemi

Rapor saat 07:00 UTC de 1 saat ve 15 dakika önce yapıldı.
Rüzgar doğu/kuzeydoğudan 2 kt
Sıcaklık 29°C
Nem 23%
Basınç 1009 hPa
Görüş mesafesi 10 km veya daha fazla
1500 m altında bulut yok ve kümülonimbus yok

METAR: DFFD 300700Z 06002KT CAVOK 29/06 Q1009 NOSIG

Saat: 08:15 (08:15 UTC)

Tahmin

Rapor saat 05:00 UTC de 3 saat ve 15 dakika önce yapıldı.
Ayın 30'si saat 06 UTC'den ayın 31'si saat 12 UTC'ye kadar geçerli Tahmin
Rüzgar değişken yönden 8 kt
Görüş mesafesi: 6000 m
Geçici
ayın 30'si saat 06 UTC'den ayın 30'si saat 11 UTC'ye kadar
Görüş mesafesi: 2500 m
yaygın toz
Geçici
ayın 31'si saat 06 UTC'den ayın 31'si saat 10 UTC'ye kadar
Görüş mesafesi: 2500 m
yaygın toz

TAF: DFFD 300500Z 3006/3112 VRB08KT 6000 NSC TEMPO 3006/3011 2500 DU TEMPO 3106/3110 2500 DU

4.000'den fazla havaalanı için hava durumu gözlemleri ve tahminleri (METAR ve TAF raporları).

Kullanılabilir istasyonlar harita üzerinde sarı ve kırmızı noktalarla gösterilir.

İstasyonun adını görmek için fareyi noktanın üzerinde gezdirin.

Sonrasında hava gözlem ve tahminlerini görmek için tıklayın.

Haritayı değiştirmek için: yaklaştırmak için siyah artı işaretli yeşil düğmeye ve uzaklaştırmak için de eksi işaretli düğmeye hızla tıklayın; bitişik haritalar için yeşil okları kullanın.


METAR-TAF: